aviador You're here:

KHBI Decoded Metar

ASHEBORO MUNI in NC, USA
Report Time2018-02-25 11:15:00
UTC Time2018-02-25 11:37:52
Flight Rules vfr VFR
Wind190° at 09 Gusting to 18 kt
W.Decomp.*RWY 21: 8.8 kt HW 1.9 kt LCW
W.Rank190° ranks 3
Current wind is above 190° avg. (5.7)
Visibility9999 m
Phenomena:N/A
Clouds:N/A
Expected CloudBase > 800 ft AGL from Temp-Dew spread
CeilingNone
Temp17°C (ISA +3)
Dew Point15°C (88% RH)
AAT15.4°C
QNH1017 hPa
Density Alt1,161 ft
Elevation673 ft
Report Wrong Elevation
Raw Report
KHBI 251115Z AUTO 19009G18KT 10SM CLR 17/15 A3004 RMK AO2
T01720150=

Extra information for KHBI:More info

Metar Taf Metar & Taf Last 4 Metars F.Rules Stats Wind Profile Meteogram Temp Stats Airport Information Weather charts Add Link Nearby VenuesMetar ALERT Operation Metar Decoded Social comments

AIRNAV info for KHBI